Terminal Aerodrome Forecast
Issued by NWS Tuscon, AZ

Home | Current Version | Previous Version | Text Only | Print | Product List | Glossary On
Versions: 1 2 3 4 5 6 7 8 9 10 11 12
772
FTUS45 KTWC 131720
TAFTUS
TAF
KTUS 131720Z 1318/1418 14005KT P6SM SKC
     FM132100 32009KT P6SM SKC
     FM140300 25005KT P6SM SCT250
     FM140800 15005KT P6SM SCT250=

USA.gov is the U.S. government's official web portal to all federal, state and local government web resources and services.